Time;durP1;ratioP1;P1;durP2;ratioP2;P2;SDS_P1;SDS_P2;PMS_P1;PMS_P2;Temp;Humidity;BMP_temperature;BMP_pressure;BME280_temperature;BME280_humidity;BME280_pressure;Samples;Min_cycle;Max_cycle;Signal;HPM_P1;HPM_P2
2023/12/09 00:00:16;;;;;;;88.83;33.33;;;;;;;;;;4953856;28;20253;-82
2023/12/09 00:02:41;;;;;;;168.70;35.00;;;;;;;;;;4942554;28;20254;-88
2023/12/09 00:05:12;;;;;;;109.87;32.17;;;;;;;;;;4955327;28;20245;-86
2023/12/09 00:07:40;;;;;;;52.07;29.30;;;;;;;;;;4967976;28;20317;-85
2023/12/09 00:10:05;;;;;;;67.67;31.53;;;;;;;;;;4957288;28;20233;-87
2023/12/09 00:12:33;;;;;;;133.97;33.43;;;;;;;;;;4971149;28;20241;-85
2023/12/09 00:14:59;;;;;;;250.73;38.90;;;;;;;;;;4935220;28;20257;-84
2023/12/09 00:17:25;;;;;;;78.43;30.97;;;;;;;;;;4937376;28;20227;-85
2023/12/09 00:19:50;;;;;;;65.70;31.30;;;;;;;;;;4959116;28;20222;-83
2023/12/09 00:22:18;;;;;;;78.20;32.23;;;;;;;;;;4942303;28;20230;-85
2023/12/09 00:24:44;;;;;;;61.57;30.87;;;;;;;;;;4940055;28;20234;-85
2023/12/09 00:27:11;;;;;;;87.90;32.30;;;;;;;;;;4944462;28;20218;-86
2023/12/09 00:29:37;;;;;;;61.80;30.07;;;;;;;;;;4944283;28;20232;-84
2023/12/09 00:32:03;;;;;;;89.60;32.67;;;;;;;;;;4941035;28;20232;-84
2023/12/09 00:34:34;;;;;;;359.93;44.73;;;;;;;;;;4969853;28;20210;-86
2023/12/09 00:37:00;;;;;;;57.47;31.37;;;;;;;;;;4941439;28;20218;-83
2023/12/09 00:39:28;;;;;;;72.80;30.10;;;;;;;;;;4968335;28;20222;-85
2023/12/09 00:41:56;;;;;;;174.33;35.90;;;;;;;;;;4962553;28;20222;-85
2023/12/09 00:44:28;;;;;;;78.67;32.43;;;;;;;;;;4959187;28;20272;-86
2023/12/09 00:46:56;;;;;;;68.70;30.50;;;;;;;;;;4973379;28;20231;-85
2023/12/09 00:49:22;;;;;;;89.83;32.87;;;;;;;;;;4955041;28;20222;-85
2023/12/09 00:51:48;;;;;;;103.97;34.30;;;;;;;;;;4942650;28;20229;-83
2023/12/09 00:54:13;;;;;;;95.07;33.20;;;;;;;;;;4936689;28;20226;-86
2023/12/09 00:56:39;;;;;;;62.13;29.83;;;;;;;;;;4973323;28;20284;-85
2023/12/09 00:59:05;;;;;;;64.93;31.80;;;;;;;;;;4938718;28;20230;-84
2023/12/09 01:01:30;;;;;;;243.47;39.13;;;;;;;;;;4944551;28;20225;-86
2023/12/09 01:03:56;;;;;;;246.10;43.27;;;;;;;;;;4929786;28;20233;-82
2023/12/09 01:06:21;;;;;;;178.90;38.80;;;;;;;;;;4937064;28;20214;-84
2023/12/09 01:08:47;;;;;;;108.40;36.27;;;;;;;;;;4968054;28;20240;-82
2023/12/09 01:11:12;;;;;;;59.63;31.90;;;;;;;;;;4943218;28;20321;-84
2023/12/09 01:13:38;;;;;;;77.87;33.70;;;;;;;;;;4976884;28;20198;-85
2023/12/09 01:16:04;;;;;;;403.67;48.77;;;;;;;;;;4971500;28;20230;-84
2023/12/09 01:18:30;;;;;;;79.20;34.03;;;;;;;;;;4968609;28;20235;-83
2023/12/09 01:20:55;;;;;;;107.00;36.93;;;;;;;;;;4940712;28;20226;-84
2023/12/09 01:23:21;;;;;;;60.63;33.50;;;;;;;;;;4975125;28;20303;-83
2023/12/09 01:25:51;;;;;;;155.00;35.37;;;;;;;;;;4955601;28;20214;-84
2023/12/09 01:28:16;;;;;;;76.33;33.03;;;;;;;;;;4943351;28;20227;-85
2023/12/09 01:30:46;;;;;;;75.17;34.77;;;;;;;;;;4960130;28;20213;-85
2023/12/09 01:33:12;;;;;;;159.43;39.83;;;;;;;;;;4958220;28;20242;-83
2023/12/09 01:35:41;;;;;;;86.43;36.60;;;;;;;;;;4971350;28;20677;-84
2023/12/09 01:38:07;;;;;;;127.53;37.77;;;;;;;;;;4970609;28;20637;-84
2023/12/09 01:40:35;;;;;;;70.73;35.33;;;;;;;;;;4972044;28;20211;-85
2023/12/09 01:43:01;;;;;;;68.37;35.40;;;;;;;;;;4950467;28;20246;-85
2023/12/09 01:45:26;;;;;;;95.17;35.57;;;;;;;;;;4958826;28;20272;-84
2023/12/09 01:47:54;;;;;;;96.27;34.53;;;;;;;;;;4991923;28;20695;-85
2023/12/09 01:50:20;;;;;;;78.73;36.30;;;;;;;;;;4968420;28;20305;-84
2023/12/09 01:52:45;;;;;;;125.53;38.03;;;;;;;;;;4965330;28;20222;-84
2023/12/09 01:55:11;;;;;;;71.83;32.90;;;;;;;;;;4949979;28;20218;-85
2023/12/09 01:57:39;;;;;;;122.00;36.20;;;;;;;;;;4965290;28;20342;-82
2023/12/09 02:00:07;;;;;;;66.63;34.43;;;;;;;;;;4915963;28;20239;-84
2023/12/09 02:02:33;;;;;;;60.77;34.00;;;;;;;;;;4940113;28;21006;-85
2023/12/09 02:04:59;;;;;;;70.27;33.80;;;;;;;;;;4934907;29;20265;-84
2023/12/09 02:07:24;;;;;;;87.00;34.57;;;;;;;;;;4938065;28;20230;-84
2023/12/09 02:09:52;;;;;;;73.67;35.27;;;;;;;;;;4962364;28;20297;-84
2023/12/09 02:12:26;;;;;;;72.53;33.20;;;;;;;;;;4945235;28;20209;-82
2023/12/09 02:15:04;;;;;;;66.30;31.57;;;;;;;;;;4950330;28;20226;-84
2023/12/09 02:17:37;;;;;;;55.13;31.73;;;;;;;;;;4944947;28;20708;-84
2023/12/09 02:20:03;;;;;;;79.50;31.50;;;;;;;;;;4962372;28;20234;-84
2023/12/09 02:22:31;;;;;;;67.83;32.33;;;;;;;;;;4956530;28;20222;-84
2023/12/09 02:24:56;;;;;;;70.90;33.83;;;;;;;;;;4950722;28;20291;-84
2023/12/09 02:27:38;;;;;;;82.27;34.70;;;;;;;;;;4962597;28;20293;-84
2023/12/09 02:30:10;;;;;;;67.43;31.83;;;;;;;;;;4967048;28;20826;-83
2023/12/09 02:32:35;;;;;;;76.60;35.33;;;;;;;;;;4996764;28;20672;-81
2023/12/09 02:35:04;;;;;;;55.60;33.77;;;;;;;;;;4981444;28;20214;-83
2023/12/09 02:37:33;;;;;;;57.00;32.37;;;;;;;;;;4984433;28;20257;-83
2023/12/09 02:39:58;;;;;;;48.27;30.00;;;;;;;;;;4949317;28;20226;-83
2023/12/09 02:42:25;;;;;;;67.67;34.30;;;;;;;;;;4982948;28;20258;-82
2023/12/09 02:44:54;;;;;;;58.50;32.97;;;;;;;;;;4950300;28;20225;-84
2023/12/09 02:47:20;;;;;;;67.57;33.33;;;;;;;;;;4946161;28;20219;-85
2023/12/09 02:49:45;;;;;;;61.10;32.40;;;;;;;;;;4969563;28;20233;-84
2023/12/09 02:52:13;;;;;;;50.57;31.20;;;;;;;;;;4965599;28;20704;-83
2023/12/09 02:54:40;;;;;;;63.80;34.00;;;;;;;;;;4937804;28;20253;-83
2023/12/09 02:57:06;;;;;;;52.13;31.37;;;;;;;;;;4928749;28;20222;-85
2023/12/09 02:59:32;;;;;;;77.00;34.00;;;;;;;;;;4948813;28;20714;-85
2023/12/09 03:02:00;;;;;;;55.00;32.40;;;;;;;;;;4954876;28;20238;-84
2023/12/09 03:04:31;;;;;;;72.60;31.73;;;;;;;;;;4967515;28;20297;-84
2023/12/09 03:06:58;;;;;;;56.57;31.57;;;;;;;;;;4976313;28;20222;-83
2023/12/09 03:09:26;;;;;;;59.87;33.70;;;;;;;;;;4954096;28;20214;-84
2023/12/09 03:11:54;;;;;;;52.33;32.20;;;;;;;;;;4964696;28;20214;-84
2023/12/09 03:14:22;;;;;;;51.50;32.90;;;;;;;;;;4963929;28;20268;-84
2023/12/09 03:16:50;;;;;;;53.83;32.07;;;;;;;;;;4954674;28;20218;-84
2023/12/09 03:19:18;;;;;;;70.10;34.20;;;;;;;;;;4944327;28;20409;-82
2023/12/09 03:21:46;;;;;;;55.20;32.37;;;;;;;;;;4941786;28;20223;-83
2023/12/09 03:24:11;;;;;;;72.47;33.43;;;;;;;;;;4961771;28;20915;-85
2023/12/09 03:26:39;;;;;;;69.83;34.20;;;;;;;;;;4926475;28;20214;-85
2023/12/09 03:29:05;;;;;;;55.13;31.63;;;;;;;;;;4933511;28;20250;-85
2023/12/09 03:31:30;;;;;;;50.60;30.80;;;;;;;;;;4972994;28;20755;-83
2023/12/09 03:33:58;;;;;;;56.53;31.73;;;;;;;;;;4959708;28;20214;-84
2023/12/09 03:36:26;;;;;;;50.27;31.03;;;;;;;;;;4934594;28;20229;-85
2023/12/09 03:38:51;;;;;;;46.77;30.60;;;;;;;;;;4954000;28;20233;-85
2023/12/09 03:41:17;;;;;;;47.57;31.43;;;;;;;;;;4941755;28;20214;-83
2023/12/09 03:43:42;;;;;;;54.67;31.87;;;;;;;;;;4967726;28;20210;-84
2023/12/09 03:46:12;;;;;;;49.07;31.53;;;;;;;;;;4969297;28;20282;-83
2023/12/09 03:48:38;;;;;;;46.97;30.33;;;;;;;;;;4935362;28;20222;-84
2023/12/09 03:51:06;;;;;;;50.67;30.47;;;;;;;;;;4931712;28;20706;-84
2023/12/09 03:53:38;;;;;;;56.03;32.13;;;;;;;;;;4939819;28;20224;-84
2023/12/09 03:56:07;;;;;;;56.83;32.00;;;;;;;;;;4961373;28;20218;-84
2023/12/09 03:58:32;;;;;;;54.77;30.97;;;;;;;;;;4950822;28;20309;-85
2023/12/09 04:04:46;;;;;;;47.33;30.20;;;;;;;;;;4965790;28;20224;-83
2023/12/09 04:07:11;;;;;;;48.97;30.50;;;;;;;;;;4942011;28;20222;-84
2023/12/09 04:09:39;;;;;;;49.43;32.80;;;;;;;;;;4956109;28;20246;-85
2023/12/09 04:12:05;;;;;;;45.07;30.80;;;;;;;;;;4959683;28;20668;-85
2023/12/09 04:14:30;;;;;;;49.73;31.57;;;;;;;;;;4942079;28;20279;-85
2023/12/09 04:16:56;;;;;;;51.57;31.53;;;;;;;;;;4965432;28;20229;-84
2023/12/09 04:19:25;;;;;;;56.27;31.50;;;;;;;;;;4938568;28;20836;-84
2023/12/09 04:21:51;;;;;;;49.33;32.13;;;;;;;;;;4969517;28;20651;-84
2023/12/09 04:24:19;;;;;;;52.37;32.27;;;;;;;;;;4935011;28;20224;-84
2023/12/09 04:26:45;;;;;;;53.40;31.87;;;;;;;;;;4963422;28;20918;-83
2023/12/09 04:29:11;;;;;;;49.17;32.33;;;;;;;;;;4947677;28;20221;-83
2023/12/09 04:31:39;;;;;;;46.37;30.50;;;;;;;;;;4957747;28;20222;-83
2023/12/09 04:34:04;;;;;;;47.07;29.23;;;;;;;;;;4941132;28;20289;-84
2023/12/09 04:36:30;;;;;;;43.10;31.57;;;;;;;;;;4967798;28;20225;-84
2023/12/09 04:39:00;;;;;;;48.17;30.17;;;;;;;;;;4965156;28;20570;-84
2023/12/09 04:41:27;;;;;;;46.97;31.03;;;;;;;;;;4970438;28;20554;-85
2023/12/09 04:43:54;;;;;;;48.60;31.37;;;;;;;;;;4966423;28;20210;-85
2023/12/09 04:46:22;;;;;;;47.33;29.87;;;;;;;;;;4950038;28;20292;-84
2023/12/09 04:48:48;;;;;;;56.67;30.60;;;;;;;;;;4955105;28;20225;-85
2023/12/09 04:51:13;;;;;;;78.37;33.53;;;;;;;;;;4964049;28;20219;-85
2023/12/09 04:53:44;;;;;;;79.40;33.07;;;;;;;;;;4935450;28;20218;-84
2023/12/09 04:56:11;;;;;;;54.20;31.50;;;;;;;;;;4966849;28;20606;-85
2023/12/09 04:58:37;;;;;;;47.60;30.43;;;;;;;;;;4964510;28;20991;-85
2023/12/09 05:01:02;;;;;;;42.00;28.90;;;;;;;;;;4936801;28;20222;-84
2023/12/09 05:03:30;;;;;;;97.83;35.10;;;;;;;;;;4939075;28;20297;-85
2023/12/09 05:06:00;;;;;;;48.67;29.70;;;;;;;;;;4945114;28;20940;-85
2023/12/09 05:08:28;;;;;;;38.67;28.77;;;;;;;;;;4941363;28;20230;-83
2023/12/09 05:10:56;;;;;;;37.83;27.37;;;;;;;;;;4968651;28;20278;-84
2023/12/09 05:13:26;;;;;;;41.17;29.80;;;;;;;;;;4964842;28;20252;-84
2023/12/09 05:15:55;;;;;;;54.50;31.23;;;;;;;;;;4961862;28;20230;-84
2023/12/09 05:18:20;;;;;;;40.33;29.30;;;;;;;;;;4940367;28;20286;-85
2023/12/09 05:20:46;;;;;;;40.10;29.63;;;;;;;;;;4937727;28;20222;-85
2023/12/09 05:23:14;;;;;;;201.87;38.03;;;;;;;;;;4950434;28;20222;-85
2023/12/09 05:25:43;;;;;;;36.10;26.70;;;;;;;;;;4936978;28;20215;-85
2023/12/09 05:28:09;;;;;;;44.00;28.30;;;;;;;;;;4936403;28;20226;-85
2023/12/09 05:30:36;;;;;;;37.13;26.17;;;;;;;;;;4943549;28;20222;-84
2023/12/09 05:33:07;;;;;;;37.67;27.47;;;;;;;;;;4941964;28;20295;-85
2023/12/09 05:35:32;;;;;;;39.37;27.80;;;;;;;;;;4943280;28;20519;-85
2023/12/09 05:37:58;;;;;;;136.70;33.63;;;;;;;;;;4960551;28;20230;-85
2023/12/09 05:40:23;;;;;;;33.77;26.60;;;;;;;;;;4961570;28;20222;-85
2023/12/09 05:42:49;;;;;;;32.10;25.67;;;;;;;;;;4944409;28;20247;-86
2023/12/09 05:45:14;;;;;;;42.73;26.00;;;;;;;;;;4969755;28;20722;-85
2023/12/09 05:47:42;;;;;;;44.23;25.93;;;;;;;;;;4942411;28;20237;-85
2023/12/09 05:50:08;;;;;;;38.90;25.60;;;;;;;;;;4971364;28;20218;-85
2023/12/09 05:52:36;;;;;;;30.93;22.97;;;;;;;;;;4971912;28;20234;-85
2023/12/09 05:55:02;;;;;;;31.77;24.40;;;;;;;;;;4941788;28;20490;-85
2023/12/09 05:57:30;;;;;;;38.03;25.27;;;;;;;;;;4952615;28;20264;-85
2023/12/09 05:59:55;;;;;;;36.27;25.23;;;;;;;;;;4973175;28;20246;-85
2023/12/09 06:02:21;;;;;;;36.57;25.67;;;;;;;;;;4955707;28;20228;-85
2023/12/09 06:04:49;;;;;;;30.03;23.17;;;;;;;;;;4949160;28;20219;-85
2023/12/09 06:07:17;;;;;;;30.50;23.50;;;;;;;;;;4967115;28;20225;-86
2023/12/09 06:09:43;;;;;;;32.40;22.80;;;;;;;;;;4970136;28;20217;-84
2023/12/09 06:12:11;;;;;;;33.37;23.33;;;;;;;;;;4942220;28;20211;-85
2023/12/09 06:14:37;;;;;;;30.03;23.23;;;;;;;;;;4957247;28;20613;-84
2023/12/09 06:17:05;;;;;;;29.70;21.77;;;;;;;;;;4941675;28;20225;-84
2023/12/09 06:19:33;;;;;;;30.13;22.53;;;;;;;;;;4959540;28;20230;-83
2023/12/09 06:22:01;;;;;;;31.57;23.53;;;;;;;;;;4958010;28;20348;-84
2023/12/09 06:24:29;;;;;;;33.77;23.40;;;;;;;;;;4971396;28;20301;-84
2023/12/09 06:26:57;;;;;;;30.00;22.20;;;;;;;;;;4942402;28;20222;-84
2023/12/09 06:29:25;;;;;;;30.50;21.87;;;;;;;;;;4958462;28;20234;-84
2023/12/09 06:31:53;;;;;;;31.97;21.87;;;;;;;;;;4968249;28;20215;-85
2023/12/09 06:34:21;;;;;;;33.57;22.00;;;;;;;;;;4928346;28;20209;-85
2023/12/09 06:36:46;;;;;;;33.00;21.83;;;;;;;;;;4967829;28;20218;-85
2023/12/09 06:39:14;;;;;;;31.17;21.07;;;;;;;;;;4980135;28;20221;-84
2023/12/09 06:41:44;;;;;;;28.57;21.13;;;;;;;;;;4954023;28;20234;-84
2023/12/09 06:44:12;;;;;;;29.50;21.50;;;;;;;;;;5001531;28;20202;-84
2023/12/09 06:46:40;;;;;;;30.70;21.07;;;;;;;;;;4954638;28;20215;-84
2023/12/09 06:49:06;;;;;;;25.90;20.17;;;;;;;;;;4987126;28;20226;-84
2023/12/09 06:51:35;;;;;;;27.47;21.10;;;;;;;;;;4958596;28;20294;-85
2023/12/09 06:54:02;;;;;;;25.93;20.33;;;;;;;;;;4950554;28;20230;-85
2023/12/09 06:56:30;;;;;;;31.80;21.43;;;;;;;;;;4955353;28;20226;-84
2023/12/09 06:58:58;;;;;;;29.37;21.33;;;;;;;;;;4966347;28;20234;-85
2023/12/09 07:01:25;;;;;;;27.53;19.30;;;;;;;;;;4975390;28;20699;-85
2023/12/09 07:03:53;;;;;;;28.30;20.93;;;;;;;;;;4942190;28;20222;-85
2023/12/09 07:06:27;;;;;;;28.30;20.50;;;;;;;;;;4958074;28;20225;-84
2023/12/09 07:08:53;;;;;;;30.17;22.20;;;;;;;;;;4938120;28;20283;-85
2023/12/09 07:11:21;;;;;;;30.03;22.70;;;;;;;;;;4943680;28;20654;-85
2023/12/09 07:13:47;;;;;;;26.97;21.33;;;;;;;;;;4974164;28;20296;-85
2023/12/09 07:16:18;;;;;;;30.87;21.53;;;;;;;;;;4944650;28;20632;-85
2023/12/09 07:18:47;;;;;;;32.30;22.40;;;;;;;;;;4948189;28;20287;-85
2023/12/09 07:21:15;;;;;;;30.93;21.80;;;;;;;;;;4955597;28;20218;-85
2023/12/09 07:23:41;;;;;;;31.07;20.80;;;;;;;;;;4969761;28;20206;-85
2023/12/09 07:26:07;;;;;;;31.03;20.03;;;;;;;;;;4956457;28;20214;-85
2023/12/09 07:28:35;;;;;;;34.13;21.03;;;;;;;;;;4959892;28;20608;-85
2023/12/09 07:31:01;;;;;;;35.43;21.67;;;;;;;;;;4955059;28;20246;-85
2023/12/09 07:33:26;;;;;;;39.20;22.90;;;;;;;;;;4966375;28;20309;-85
2023/12/09 07:35:52;;;;;;;32.60;21.70;;;;;;;;;;4935500;28;20218;-84
2023/12/09 07:38:19;;;;;;;25.37;19.43;;;;;;;;;;4967036;28;20249;-84
2023/12/09 07:40:51;;;;;;;26.60;20.93;;;;;;;;;;4938957;28;20690;-85
2023/12/09 07:43:19;;;;;;;31.80;21.17;;;;;;;;;;4969987;28;20246;-84
2023/12/09 07:45:45;;;;;;;23.60;18.33;;;;;;;;;;4938670;28;20555;-84
2023/12/09 07:48:13;;;;;;;23.50;18.67;;;;;;;;;;4955842;28;20230;-85
2023/12/09 07:50:41;;;;;;;26.33;19.07;;;;;;;;;;4950141;28;20572;-84
2023/12/09 07:53:06;;;;;;;25.10;18.67;;;;;;;;;;4953395;28;20226;-83
2023/12/09 07:55:32;;;;;;;22.83;18.00;;;;;;;;;;4925790;28;20239;-84
2023/12/09 07:58:00;;;;;;;24.70;18.73;;;;;;;;;;4938417;28;20704;-84
2023/12/09 08:00:29;;;;;;;24.70;17.93;;;;;;;;;;4946694;28;20235;-84
2023/12/09 08:02:54;;;;;;;20.60;16.57;;;;;;;;;;4937278;28;20226;-85
2023/12/09 08:05:26;;;;;;;21.30;17.40;;;;;;;;;;4963615;28;20222;-84
2023/12/09 08:07:54;;;;;;;25.43;17.27;;;;;;;;;;4954558;28;20253;-83
2023/12/09 08:10:22;;;;;;;31.47;18.90;;;;;;;;;;4943222;28;20365;-86
2023/12/09 08:12:49;;;;;;;29.63;18.83;;;;;;;;;;4947379;28;20230;-84
2023/12/09 08:15:15;;;;;;;26.00;18.43;;;;;;;;;;4947729;28;20289;-85
2023/12/09 08:17:41;;;;;;;30.10;18.43;;;;;;;;;;4945119;28;20230;-85
2023/12/09 08:20:10;;;;;;;24.77;18.53;;;;;;;;;;4961213;28;20281;-85
2023/12/09 08:22:39;;;;;;;27.17;18.13;;;;;;;;;;4943268;28;20230;-84
2023/12/09 08:25:12;;;;;;;28.27;18.20;;;;;;;;;;4957838;28;20728;-86
2023/12/09 08:27:41;;;;;;;33.37;19.73;;;;;;;;;;4942462;28;20223;-86
2023/12/09 08:30:10;;;;;;;29.07;19.10;;;;;;;;;;4973809;28;20225;-85
2023/12/09 08:32:38;;;;;;;30.80;18.47;;;;;;;;;;4936401;28;20218;-85
2023/12/09 08:35:04;;;;;;;23.47;17.87;;;;;;;;;;4938290;28;20229;-85
2023/12/09 08:37:30;;;;;;;24.93;17.27;;;;;;;;;;4943649;28;20228;-85
2023/12/09 08:39:55;;;;;;;26.53;18.03;;;;;;;;;;4935767;28;20226;-85
2023/12/09 08:42:21;;;;;;;28.63;18.47;;;;;;;;;;4969897;28;20217;-85
2023/12/09 08:44:49;;;;;;;29.87;18.50;;;;;;;;;;4953909;28;20228;-85
2023/12/09 08:47:15;;;;;;;27.80;18.57;;;;;;;;;;4968311;28;20214;-84
2023/12/09 08:49:43;;;;;;;25.77;19.80;;;;;;;;;;4933428;28;20225;-86
2023/12/09 08:52:14;;;;;;;26.83;19.13;;;;;;;;;;4945507;28;20245;-85
2023/12/09 08:54:40;;;;;;;23.83;18.33;;;;;;;;;;4953371;28;20643;-85
2023/12/09 08:57:08;;;;;;;28.10;19.80;;;;;;;;;;4967650;28;20227;-84
2023/12/09 08:59:36;;;;;;;29.13;18.03;;;;;;;;;;4976523;28;20218;-85
2023/12/09 09:02:01;;;;;;;28.47;18.83;;;;;;;;;;4968596;28;20215;-86
2023/12/09 09:04:27;;;;;;;25.43;17.93;;;;;;;;;;4964105;28;20222;-85
2023/12/09 09:06:55;;;;;;;25.60;18.77;;;;;;;;;;4956974;28;20246;-87
2023/12/09 09:09:22;;;;;;;28.43;19.23;;;;;;;;;;4959344;28;20223;-86
2023/12/09 09:11:48;;;;;;;28.37;20.77;;;;;;;;;;4981010;28;20249;-86
2023/12/09 09:14:17;;;;;;;27.73;20.20;;;;;;;;;;4937445;28;20215;-88
2023/12/09 09:16:42;;;;;;;24.73;19.10;;;;;;;;;;4918269;28;20231;-87
2023/12/09 09:19:08;;;;;;;27.33;20.20;;;;;;;;;;4966297;28;20972;-86
2023/12/09 09:21:36;;;;;;;28.77;19.60;;;;;;;;;;4945671;28;20221;-86
2023/12/09 09:24:02;;;;;;;27.53;20.83;;;;;;;;;;4930203;29;20249;-86
2023/12/09 09:26:28;;;;;;;27.33;19.10;;;;;;;;;;4944925;28;20281;-86
2023/12/09 09:28:57;;;;;;;23.57;19.80;;;;;;;;;;4970471;28;20213;-87
2023/12/09 09:31:23;;;;;;;24.93;20.20;;;;;;;;;;4994062;28;20222;-89
2023/12/09 09:33:53;;;;;;;29.83;21.03;;;;;;;;;;4945269;28;20225;-87
2023/12/09 09:36:19;;;;;;;26.73;21.30;;;;;;;;;;4971709;28;20222;-87
2023/12/09 09:38:44;;;;;;;36.13;22.07;;;;;;;;;;4977064;28;20242;-88
2023/12/09 09:41:26;;;;;;;23.73;20.17;;;;;;;;;;4981740;28;20274;-87
2023/12/09 09:44:01;;;;;;;29.77;20.77;;;;;;;;;;4935514;28;20217;-85
2023/12/09 09:46:27;;;;;;;28.90;19.27;;;;;;;;;;4959567;28;20218;-86
2023/12/09 09:48:59;;;;;;;27.97;21.40;;;;;;;;;;4945832;28;20226;-78
2023/12/09 09:51:28;;;;;;;24.47;20.40;;;;;;;;;;4943019;28;20249;-78
2023/12/09 09:54:32;;;;;;;27.50;20.97;;;;;;;;;;4951736;28;20222;-78
2023/12/09 09:57:03;;;;;;;27.47;19.77;;;;;;;;;;4932285;28;20234;-79
2023/12/09 09:59:29;;;;;;;26.50;20.00;;;;;;;;;;4932759;28;20234;-78
2023/12/09 10:01:55;;;;;;;26.23;21.43;;;;;;;;;;4940112;28;20226;-78
2023/12/09 10:04:20;;;;;;;23.53;20.73;;;;;;;;;;4938878;28;20344;-78
2023/12/09 10:06:46;;;;;;;30.87;21.87;;;;;;;;;;4940732;28;20261;-78
2023/12/09 10:09:12;;;;;;;27.27;20.83;;;;;;;;;;4963567;28;20222;-79
2023/12/09 10:11:37;;;;;;;23.93;19.30;;;;;;;;;;4953827;28;20262;-78
2023/12/09 10:14:06;;;;;;;29.83;20.40;;;;;;;;;;4980660;28;20223;-78
2023/12/09 10:16:33;;;;;;;24.43;19.43;;;;;;;;;;4936258;28;20672;-80
2023/12/09 10:18:58;;;;;;;27.03;19.80;;;;;;;;;;4951748;28;20226;-79
2023/12/09 10:21:24;;;;;;;25.57;17.97;;;;;;;;;;4946921;28;20289;-78
2023/12/09 10:23:50;;;;;;;22.33;17.70;;;;;;;;;;4940520;28;20250;-79
2023/12/09 10:26:16;;;;;;;21.60;17.67;;;;;;;;;;4933695;28;20214;-78
2023/12/09 10:28:41;;;;;;;20.97;17.80;;;;;;;;;;5025376;23;20236;-78
2023/12/09 10:31:09;;;;;;;22.17;18.37;;;;;;;;;;5032844;28;20216;-78
2023/12/09 10:33:35;;;;;;;21.87;17.20;;;;;;;;;;4989876;28;20295;-78
2023/12/09 10:36:01;;;;;;;26.53;17.97;;;;;;;;;;4995575;28;20236;-78
2023/12/09 10:38:32;;;;;;;20.60;16.57;;;;;;;;;;4970054;28;20229;-79
2023/12/09 10:41:00;;;;;;;19.23;16.50;;;;;;;;;;4988426;28;20220;-78
2023/12/09 10:43:25;;;;;;;22.07;16.83;;;;;;;;;;5010290;28;20252;-78
2023/12/09 10:45:53;;;;;;;17.10;15.07;;;;;;;;;;4989576;28;20236;-79
2023/12/09 10:48:21;;;;;;;18.07;15.93;;;;;;;;;;4993385;28;20299;-78
2023/12/09 10:50:46;;;;;;;17.63;14.43;;;;;;;;;;4989029;28;20239;-78
2023/12/09 10:53:12;;;;;;;19.13;16.70;;;;;;;;;;5000334;28;20217;-79
2023/12/09 10:55:40;;;;;;;19.47;16.00;;;;;;;;;;5011158;28;20216;-79
2023/12/09 10:58:05;;;;;;;18.90;16.00;;;;;;;;;;4987614;28;20729;-78
2023/12/09 11:00:36;;;;;;;19.63;15.87;;;;;;;;;;4996234;28;20221;-78
2023/12/09 11:03:01;;;;;;;21.03;15.53;;;;;;;;;;4990125;28;20221;-79
2023/12/09 11:05:27;;;;;;;16.80;14.50;;;;;;;;;;4986771;28;20257;-78
2023/12/09 11:07:53;;;;;;;16.73;14.07;;;;;;;;;;4999217;28;20228;-79
2023/12/09 11:10:19;;;;;;;18.40;14.63;;;;;;;;;;5028211;28;20222;-80
2023/12/09 11:12:47;;;;;;;17.40;13.90;;;;;;;;;;5010864;28;20238;-80
2023/12/09 11:15:19;;;;;;;18.17;13.87;;;;;;;;;;5027618;28;20224;-78
2023/12/09 11:17:52;;;;;;;14.50;12.77;;;;;;;;;;5011963;28;20228;-80
2023/12/09 11:20:19;;;;;;;17.67;13.67;;;;;;;;;;5013225;28;20232;-79
2023/12/09 11:22:49;;;;;;;15.57;12.43;;;;;;;;;;5002761;28;20818;-80
2023/12/09 11:25:25;;;;;;;14.43;11.97;;;;;;;;;;4992186;28;20777;-81
2023/12/09 11:27:58;;;;;;;13.37;11.97;;;;;;;;;;4998492;28;20307;-80
2023/12/09 11:30:36;;;;;;;13.67;11.10;;;;;;;;;;4990153;28;20240;-80
2023/12/09 11:33:02;;;;;;;20.10;11.40;;;;;;;;;;5008240;28;20721;-81
2023/12/09 11:35:28;;;;;;;13.20;11.80;;;;;;;;;;5008701;28;20232;-80
2023/12/09 11:37:54;;;;;;;12.93;11.17;;;;;;;;;;4995275;28;20414;-80
2023/12/09 11:40:28;;;;;;;13.03;10.63;;;;;;;;;;4975992;28;20237;-80
2023/12/09 11:42:54;;;;;;;12.37;10.27;;;;;;;;;;5009858;28;20225;-81
2023/12/09 11:45:21;;;;;;;13.90;10.97;;;;;;;;;;4990334;28;20229;-81
2023/12/09 11:47:54;;;;;;;12.77;9.97;;;;;;;;;;4998241;28;20267;-80
2023/12/09 11:50:19;;;;;;;12.87;9.90;;;;;;;;;;5024676;28;20229;-80
2023/12/09 11:52:46;;;;;;;12.80;9.87;;;;;;;;;;4992752;28;20244;-80
2023/12/09 11:55:11;;;;;;;11.87;10.13;;;;;;;;;;4988482;28;20225;-79
2023/12/09 11:57:38;;;;;;;10.70;9.63;;;;;;;;;;4995913;28;20228;-81
2023/12/09 12:00:11;;;;;;;14.43;9.50;;;;;;;;;;4995278;28;20233;-80
2023/12/09 12:02:40;;;;;;;12.00;9.20;;;;;;;;;;5005104;28;20244;-80
2023/12/09 12:05:07;;;;;;;10.77;9.67;;;;;;;;;;4995265;28;20706;-78
2023/12/09 12:07:32;;;;;;;14.40;8.63;;;;;;;;;;4997180;28;20232;-80
2023/12/09 12:09:58;;;;;;;11.70;9.77;;;;;;;;;;4995463;28;20228;-79
2023/12/09 12:12:25;;;;;;;11.53;9.23;;;;;;;;;;5000162;28;20232;-77
2023/12/09 12:14:53;;;;;;;12.27;9.47;;;;;;;;;;4999164;28;20474;-78
2023/12/09 12:17:19;;;;;;;9.43;8.33;;;;;;;;;;4993123;28;20241;-78
2023/12/09 12:19:47;;;;;;;10.33;8.87;;;;;;;;;;4983760;28;20706;-77
2023/12/09 12:22:13;;;;;;;12.87;8.53;;;;;;;;;;4995450;28;20300;-76
2023/12/09 12:24:42;;;;;;;10.60;8.87;;;;;;;;;;5008465;28;20397;-79
2023/12/09 12:27:08;;;;;;;8.97;7.60;;;;;;;;;;5008635;28;20216;-78
2023/12/09 12:29:33;;;;;;;14.47;7.63;;;;;;;;;;4989515;28;20224;-78
2023/12/09 12:32:01;;;;;;;9.33;7.77;;;;;;;;;;5010151;28;20244;-77
2023/12/09 12:34:27;;;;;;;7.53;6.77;;;;;;;;;;5021677;28;20239;-78
2023/12/09 12:36:57;;;;;;;9.63;7.30;;;;;;;;;;4998705;28;20222;-77
2023/12/09 12:39:25;;;;;;;8.73;7.53;;;;;;;;;;4992555;28;20251;-78
2023/12/09 12:41:56;;;;;;;11.60;7.13;;;;;;;;;;5013134;28;20231;-78
2023/12/09 12:44:21;;;;;;;9.77;6.83;;;;;;;;;;4995347;28;20706;-78
2023/12/09 12:46:49;;;;;;;10.20;8.47;;;;;;;;;;5017769;28;20289;-78
2023/12/09 12:49:17;;;;;;;8.97;6.83;;;;;;;;;;5010569;28;20225;-79
2023/12/09 12:51:45;;;;;;;8.77;7.07;;;;;;;;;;5010169;28;20232;-79
2023/12/09 12:54:14;;;;;;;9.13;6.57;;;;;;;;;;5011991;28;20229;-77
2023/12/09 12:56:39;;;;;;;8.17;6.43;;;;;;;;;;4997812;28;20227;-78
2023/12/09 12:59:09;;;;;;;8.37;6.70;;;;;;;;;;4994122;28;20231;-76
2023/12/09 13:01:37;;;;;;;8.00;6.73;;;;;;;;;;5005958;28;20232;-77
2023/12/09 13:04:09;;;;;;;9.50;6.50;;;;;;;;;;5000322;28;20284;-80
2023/12/09 13:06:35;;;;;;;7.37;5.93;;;;;;;;;;4998195;28;20284;-77
2023/12/09 13:09:05;;;;;;;6.63;5.93;;;;;;;;;;4996542;28;20278;-78
2023/12/09 13:11:30;;;;;;;6.27;5.23;;;;;;;;;;5008353;28;20284;-79
2023/12/09 13:13:56;;;;;;;6.60;5.83;;;;;;;;;;5013725;28;20228;-78
2023/12/09 13:16:21;;;;;;;9.60;5.23;;;;;;;;;;4992834;28;20749;-77
2023/12/09 13:18:49;;;;;;;8.03;5.73;;;;;;;;;;4995520;28;20221;-77
2023/12/09 13:21:20;;;;;;;7.37;5.73;;;;;;;;;;4992729;28;20213;-76
2023/12/09 13:23:51;;;;;;;10.07;5.70;;;;;;;;;;5012031;28;20228;-79
2023/12/09 13:26:18;;;;;;;6.63;5.47;;;;;;;;;;5009496;28;20228;-79
2023/12/09 13:28:46;;;;;;;7.83;5.83;;;;;;;;;;5011159;28;20221;-77
2023/12/09 13:31:15;;;;;;;7.63;5.93;;;;;;;;;;5007976;28;20581;-78
2023/12/09 13:33:41;;;;;;;7.87;5.80;;;;;;;;;;4997717;28;20232;-78
2023/12/09 13:36:07;;;;;;;6.63;5.90;;;;;;;;;;4989838;28;20214;-77
2023/12/09 13:38:32;;;;;;;6.33;5.70;;;;;;;;;;5010723;28;20296;-78
2023/12/09 13:41:00;;;;;;;6.43;5.83;;;;;;;;;;4991588;28;20228;-79
2023/12/09 13:43:29;;;;;;;9.33;5.47;;;;;;;;;;4993890;28;20699;-77
2023/12/09 13:45:57;;;;;;;5.27;4.77;;;;;;;;;;4987390;28;20222;-78
2023/12/09 13:48:22;;;;;;;7.67;5.67;;;;;;;;;;5002224;28;21236;-77
2023/12/09 13:50:48;;;;;;;6.63;4.67;;;;;;;;;;5006645;28;20221;-76
2023/12/09 13:53:16;;;;;;;7.73;5.37;;;;;;;;;;4995866;28;20723;-77
2023/12/09 13:55:44;;;;;;;6.33;5.30;;;;;;;;;;5019283;28;20217;-76
2023/12/09 13:58:12;;;;;;;8.73;5.53;;;;;;;;;;5017004;28;20256;-75
2023/12/09 14:00:38;;;;;;;7.00;5.17;;;;;;;;;;5012403;28;20224;-78
2023/12/09 14:03:07;;;;;;;7.37;5.00;;;;;;;;;;5002395;28;20223;-78
2023/12/09 14:05:35;;;;;;;6.00;4.93;;;;;;;;;;5012144;28;20232;-78
2023/12/09 14:08:01;;;;;;;5.47;4.97;;;;;;;;;;5012546;28;20264;-78
2023/12/09 14:10:26;;;;;;;6.67;5.07;;;;;;;;;;5014331;28;20645;-78
2023/12/09 14:12:52;;;;;;;9.13;4.93;;;;;;;;;;4996369;28;20227;-81
2023/12/09 14:15:17;;;;;;;7.03;5.43;;;;;;;;;;4993908;28;20688;-79
2023/12/09 14:17:43;;;;;;;7.27;5.30;;;;;;;;;;5015143;28;20324;-79
2023/12/09 14:20:15;;;;;;;7.57;4.87;;;;;;;;;;4999304;28;20247;-79
2023/12/09 14:22:42;;;;;;;5.43;4.90;;;;;;;;;;5009161;28;20224;-81
2023/12/09 14:25:08;;;;;;;7.90;4.73;;;;;;;;;;4991825;28;20259;-77